Terminal Aerodrome Forecast
Issued by NWS

Home | Current Version | Previous Version | Text Only | Print | Product List | Glossary Off
Versions: 1 2 3 4 5 6 7 8 9 10 11 12 13 14 15

000
FTUS43 KICT 240535
TAFRSL
TAF
KRSL 240535Z 2406/2506 31014KT P6SM FEW150
     FM241500 31018G25KT P6SM SKC
     FM242300 30008KT P6SM BKN200=

USA.gov is the U.S. government's official web portal to all federal, state and local government web resources and services.